createdAt,value
2018-05-17T00:00:11.541Z,22.70
2018-05-17T00:02:39.073Z,25.20
2018-05-17T00:05:06.808Z,19.37
2018-05-17T00:07:34.355Z,22.50
2018-05-17T00:10:01.859Z,20.07
2018-05-17T00:12:29.722Z,24.27
2018-05-17T00:14:57.250Z,27.93
2018-05-17T00:17:24.769Z,20.00
2018-05-17T00:19:52.298Z,21.80
2018-05-17T00:22:19.863Z,21.83
2018-05-17T00:24:47.518Z,21.67
2018-05-17T00:27:15.077Z,22.67
2018-05-17T00:29:42.588Z,23.17
2018-05-17T00:32:10.129Z,22.40
2018-05-17T00:34:37.646Z,27.73
2018-05-17T00:37:05.245Z,21.27
2018-05-17T00:39:32.759Z,25.10
2018-05-17T00:42:00.649Z,19.80
2018-05-17T00:44:28.188Z,24.30
2018-05-17T00:46:55.701Z,23.90
2018-05-17T00:49:23.263Z,27.23
2018-05-17T00:51:50.834Z,29.13
2018-05-17T00:54:18.350Z,19.97
2018-05-17T00:56:45.887Z,35.40
2018-05-17T00:59:13.402Z,24.20
2018-05-17T01:01:40.982Z,24.10
2018-05-17T01:04:08.562Z,25.83
2018-05-17T01:06:36.070Z,26.03
2018-05-17T01:09:03.645Z,28.60
2018-05-17T01:11:31.165Z,25.57
2018-05-17T01:13:58.702Z,22.53
2018-05-17T01:16:26.206Z,25.93
2018-05-17T01:18:53.812Z,25.40
2018-05-17T01:21:21.399Z,27.63
2018-05-17T01:23:48.967Z,21.00
2018-05-17T01:26:16.511Z,19.67
2018-05-17T01:28:44.135Z,20.20
2018-05-17T01:31:11.648Z,22.00
2018-05-17T01:33:39.170Z,26.50
2018-05-17T01:36:06.757Z,23.67
2018-05-17T01:38:34.270Z,24.50
2018-05-17T01:41:01.803Z,23.83
2018-05-17T01:43:29.338Z,23.23
2018-05-17T01:45:56.849Z,23.47
2018-05-17T01:48:24.404Z,24.43
2018-05-17T01:50:52.245Z,26.00
2018-05-17T01:53:19.829Z,22.23
2018-05-17T01:55:47.380Z,22.80
2018-05-17T01:58:14.913Z,25.80
2018-05-17T02:00:42.488Z,28.20
2018-05-17T02:03:10.201Z,26.77
2018-05-17T02:05:37.739Z,31.27
2018-05-17T02:08:05.297Z,25.90
2018-05-17T02:10:32.827Z,26.93
2018-05-17T02:13:00.360Z,26.00
2018-05-17T02:15:27.964Z,42.00
2018-05-17T02:17:55.482Z,26.20
2018-05-17T02:20:23.061Z,26.33
2018-05-17T02:22:50.572Z,28.50
2018-05-17T02:25:18.098Z,28.53
2018-05-17T02:27:45.643Z,29.60
2018-05-17T02:30:13.535Z,31.60
2018-05-17T02:32:41.099Z,32.23
2018-05-17T02:35:08.986Z,40.40
2018-05-17T02:37:36.531Z,26.23
2018-05-17T02:40:04.082Z,25.53
2018-05-17T02:42:31.616Z,28.67
2018-05-17T02:44:59.178Z,26.53
2018-05-17T02:47:26.710Z,29.27
2018-05-17T02:49:54.281Z,30.40
2018-05-17T02:52:21.856Z,27.80
2018-05-17T02:54:49.654Z,30.97
2018-05-17T02:57:17.270Z,28.80
2018-05-17T02:59:44.783Z,30.37
2018-05-17T03:02:12.301Z,28.70
2018-05-17T03:04:39.858Z,28.47
2018-05-17T03:07:07.360Z,27.40
2018-05-17T03:09:35.054Z,32.57
2018-05-17T03:12:02.649Z,29.13
2018-05-17T03:14:30.588Z,24.80
2018-05-17T03:16:58.529Z,29.23
2018-05-17T03:19:26.041Z,31.60
2018-05-17T03:21:53.599Z,33.07
2018-05-17T03:24:21.127Z,32.83
2018-05-17T03:26:48.650Z,27.47
2018-05-17T03:29:16.214Z,26.13
2018-05-17T03:31:43.982Z,28.13
2018-05-17T03:34:11.605Z,29.50
2018-05-17T03:36:39.229Z,33.93
2018-05-17T03:39:06.763Z,32.10
2018-05-17T03:41:34.343Z,31.93
2018-05-17T03:44:01.879Z,40.63
2018-05-17T03:46:29.758Z,44.63
2018-05-17T03:48:57.335Z,30.27
2018-05-17T03:51:24.867Z,29.87
2018-05-17T03:53:52.396Z,30.67
2018-05-17T03:56:19.910Z,35.67
2018-05-17T03:58:47.823Z,37.43
2018-05-17T04:01:27.012Z,37.23
2018-05-17T04:04:06.366Z,30.67
2018-05-17T04:06:43.403Z,31.50
2018-05-17T04:09:10.933Z,40.50
2018-05-17T04:11:38.445Z,37.43
2018-05-17T04:14:06.305Z,29.97
2018-05-17T04:16:33.832Z,30.73
2018-05-17T04:19:01.407Z,28.80
2018-05-17T04:21:29.041Z,34.17
2018-05-17T04:23:56.560Z,34.17
2018-05-17T04:26:24.085Z,27.13
2018-05-17T04:28:51.632Z,34.17
2018-05-17T04:31:19.160Z,30.37
2018-05-17T04:33:46.754Z,30.53
2018-05-17T04:36:14.299Z,31.60
2018-05-17T04:38:41.797Z,26.33
2018-05-17T04:41:09.358Z,25.17
2018-05-17T04:43:36.941Z,26.33
2018-05-17T04:46:04.629Z,26.40
2018-05-17T04:48:32.150Z,37.77
2018-05-17T04:50:59.704Z,26.90
2018-05-17T04:53:27.248Z,23.67
2018-05-17T04:55:54.899Z,29.77
2018-05-17T04:58:22.430Z,41.23
2018-05-17T05:00:49.973Z,26.90
2018-05-17T05:03:17.930Z,25.33
2018-05-17T05:05:45.450Z,29.57
2018-05-17T05:08:12.995Z,26.13
2018-05-17T05:10:40.501Z,28.50
2018-05-17T05:13:08.122Z,28.00
2018-05-17T05:15:35.645Z,34.50
2018-05-17T05:18:03.263Z,25.00
2018-05-17T05:20:30.820Z,31.40
2018-05-17T05:22:58.725Z,39.93
2018-05-17T05:25:26.270Z,31.80
2018-05-17T05:27:53.893Z,29.80
2018-05-17T05:30:21.494Z,29.90
2018-05-17T05:32:49.119Z,26.80
2018-05-17T05:35:16.931Z,35.57
2018-05-17T05:37:44.453Z,28.37
2018-05-17T05:40:12.034Z,25.43
2018-05-17T05:42:39.577Z,35.30
2018-05-17T05:45:07.201Z,30.33
2018-05-17T05:47:34.720Z,40.27
2018-05-17T05:50:02.249Z,27.60
2018-05-17T05:52:29.765Z,25.73
2018-05-17T05:54:57.963Z,32.00
2018-05-17T05:57:25.497Z,30.37
2018-05-17T05:59:53.009Z,26.63
2018-05-17T06:02:20.777Z,27.33
2018-05-17T06:04:48.284Z,31.67
2018-05-17T06:07:15.940Z,39.30
2018-05-17T06:09:43.461Z,28.00
2018-05-17T06:12:12.119Z,23.40
2018-05-17T06:14:40.097Z,28.47
2018-05-17T06:17:07.615Z,36.17
2018-05-17T06:19:35.147Z,33.23
2018-05-17T06:22:02.659Z,40.63
2018-05-17T06:24:30.310Z,36.57
2018-05-17T06:26:58.311Z,30.97
2018-05-17T06:29:26.147Z,27.30
2018-05-17T06:31:53.695Z,37.17
2018-05-17T06:34:21.465Z,28.50
2018-05-17T06:36:49.091Z,28.30
2018-05-17T06:39:16.606Z,30.13
2018-05-17T06:41:44.673Z,29.33
2018-05-17T06:44:12.234Z,28.40
2018-05-17T06:46:39.767Z,28.27
2018-05-17T06:49:08.057Z,24.47
2018-05-17T06:51:35.579Z,23.27
2018-05-17T06:54:03.126Z,24.37
2018-05-17T06:56:30.960Z,25.17
2018-05-17T06:58:59.615Z,28.50
2018-05-17T07:01:27.190Z,30.10
2018-05-17T07:03:54.727Z,24.03
2018-05-17T07:06:22.289Z,35.10
2018-05-17T07:08:49.895Z,24.83
2018-05-17T07:11:17.479Z,23.70
2018-05-17T07:13:45.057Z,26.00
2018-05-17T07:16:12.635Z,26.73
2018-05-17T07:18:40.617Z,31.40
2018-05-17T07:21:07.783Z,25.03
2018-05-17T07:23:35.322Z,28.70
2018-05-17T07:26:02.827Z,27.47
2018-05-17T07:28:30.378Z,31.20
2018-05-17T07:30:57.973Z,25.20
2018-05-17T07:33:25.541Z,27.13
2018-05-17T07:35:53.506Z,22.27
2018-05-17T07:38:21.050Z,25.73
2018-05-17T07:40:48.583Z,27.20
2018-05-17T07:43:16.279Z,31.37
2018-05-17T07:45:44.402Z,27.87
2018-05-17T07:48:11.985Z,29.70
2018-05-17T07:50:39.500Z,27.40
2018-05-17T07:53:07.040Z,20.37
2018-05-17T07:55:35.624Z,30.57
2018-05-17T07:58:03.278Z,31.80
2018-05-17T08:00:30.819Z,25.07
2018-05-17T08:02:58.451Z,32.40
2018-05-17T08:05:25.979Z,31.63
2018-05-17T08:07:53.493Z,35.67
2018-05-17T08:10:21.016Z,20.30
2018-05-17T08:12:48.539Z,21.20
2018-05-17T08:15:16.085Z,27.93
2018-05-17T08:17:43.601Z,25.03
2018-05-17T08:20:11.338Z,23.03
2018-05-17T08:22:38.897Z,27.63
2018-05-17T08:25:06.425Z,27.00
2018-05-17T08:27:33.998Z,31.50
2018-05-17T08:30:01.507Z,25.60
2018-05-17T08:32:29.066Z,25.43
2018-05-17T08:34:56.678Z,28.53
2018-05-17T08:37:24.324Z,29.70
2018-05-17T08:39:51.850Z,25.90
2018-05-17T08:42:19.381Z,32.67
2018-05-17T08:44:46.914Z,32.77
2018-05-17T08:47:14.435Z,37.83
2018-05-17T08:49:41.982Z,31.07
2018-05-17T08:52:09.487Z,34.77
2018-05-17T08:54:37.060Z,24.63
2018-05-17T08:57:04.610Z,25.63
2018-05-17T08:59:32.168Z,31.50
2018-05-17T09:01:59.729Z,28.23
2018-05-17T09:04:27.247Z,26.63
2018-05-17T09:06:54.806Z,30.60
2018-05-17T09:09:22.753Z,30.40
2018-05-17T09:11:50.269Z,34.13
2018-05-17T09:14:18.138Z,38.37
2018-05-17T09:16:45.685Z,22.90
2018-05-17T09:19:13.595Z,62.10
2018-05-17T09:21:41.135Z,63.13
2018-05-17T09:24:08.692Z,35.00
2018-05-17T09:26:36.444Z,36.47
2018-05-17T09:29:04.005Z,36.33
2018-05-17T09:31:31.554Z,24.03
2018-05-17T09:33:59.145Z,31.13
2018-05-17T09:36:26.685Z,28.80
2018-05-17T09:38:54.223Z,26.20
2018-05-17T09:41:22.027Z,35.40
2018-05-17T09:43:49.577Z,31.10
2018-05-17T09:46:17.095Z,30.63
2018-05-17T09:48:44.624Z,42.57
2018-05-17T09:51:12.218Z,31.33
2018-05-17T09:53:40.227Z,41.57
2018-05-17T09:56:07.837Z,27.67
2018-05-17T09:58:35.349Z,31.37
2018-05-17T10:01:02.881Z,34.40
2018-05-17T10:03:30.393Z,38.17
2018-05-17T10:05:57.925Z,30.10
2018-05-17T10:08:25.463Z,35.73
2018-05-17T10:10:52.983Z,41.73
2018-05-17T10:13:20.513Z,41.57
2018-05-17T10:15:48.090Z,28.20
2018-05-17T10:18:15.615Z,25.33
2018-05-17T10:20:43.130Z,33.80
2018-05-17T10:23:10.772Z,29.87
2018-05-17T10:25:38.225Z,26.50
2018-05-17T10:28:05.811Z,29.17
2018-05-17T10:30:33.553Z,32.63
2018-05-17T10:33:01.058Z,33.33
2018-05-17T10:35:28.602Z,37.93
2018-05-17T10:37:56.118Z,36.07
2018-05-17T10:40:23.660Z,27.10
2018-05-17T10:42:51.178Z,26.10
2018-05-17T10:45:18.732Z,33.13
2018-05-17T10:47:46.262Z,27.90
2018-05-17T10:50:13.958Z,30.57
2018-05-17T10:52:41.485Z,25.57
2018-05-17T10:55:09.010Z,37.83
2018-05-17T10:57:36.868Z,31.40
2018-05-17T11:00:04.396Z,47.40
2018-05-17T11:02:32.100Z,32.20
2018-05-17T11:04:59.618Z,38.00
2018-05-17T11:07:27.182Z,39.47
2018-05-17T11:09:54.781Z,32.10
2018-05-17T11:12:22.284Z,39.17
2018-05-17T11:14:49.827Z,37.23
2018-05-17T11:17:17.602Z,33.30
2018-05-17T11:19:45.139Z,32.70
2018-05-17T11:22:12.657Z,33.63
2018-05-17T11:24:40.203Z,40.13
2018-05-17T11:27:07.737Z,34.87
2018-05-17T11:29:35.353Z,26.07
2018-05-17T11:32:03.797Z,36.00
2018-05-17T11:34:31.428Z,34.13
2018-05-17T11:36:58.951Z,32.03
2018-05-17T11:39:26.564Z,32.03
2018-05-17T11:41:54.474Z,28.17
2018-05-17T11:44:22.006Z,40.33
2018-05-17T11:46:49.537Z,28.50
2018-05-17T11:49:17.035Z,35.03
2018-05-17T11:51:44.560Z,25.93
2018-05-17T11:54:12.339Z,25.70
2018-05-17T11:56:39.876Z,33.70
2018-05-17T11:59:07.665Z,34.50
2018-05-17T12:01:35.252Z,26.70
2018-05-17T12:04:02.815Z,32.87
2018-05-17T12:06:30.337Z,29.70
2018-05-17T12:08:57.901Z,27.87
2018-05-17T12:11:25.413Z,31.17
2018-05-17T12:13:52.954Z,30.40
2018-05-17T12:16:20.539Z,23.23
2018-05-17T12:18:48.078Z,30.03
2018-05-17T12:21:15.626Z,26.57
2018-05-17T12:23:43.150Z,21.80
2018-05-17T12:26:10.734Z,26.20
2018-05-17T12:28:38.298Z,21.40
2018-05-17T12:31:05.862Z,28.00
2018-05-17T12:33:33.419Z,15.73
2018-05-17T12:36:00.989Z,19.60
2018-05-17T12:38:28.586Z,28.90
2018-05-17T12:40:56.130Z,29.33
2018-05-17T12:43:23.705Z,22.60
2018-05-17T12:45:51.268Z,25.37
2018-05-17T12:48:20.772Z,22.90
2018-05-17T12:50:48.421Z,23.80
2018-05-17T12:53:15.974Z,25.70
2018-05-17T12:55:43.496Z,20.63
2018-05-17T12:58:11.701Z,19.80
2018-05-17T13:00:39.505Z,25.87
2018-05-17T13:03:07.024Z,22.83
2018-05-17T13:05:34.622Z,23.30
2018-05-17T13:08:02.270Z,24.10
2018-05-17T13:10:29.795Z,24.33
2018-05-17T13:12:57.397Z,19.17
2018-05-17T13:15:24.866Z,27.08
2018-05-17T13:17:52.450Z,25.33
2018-05-17T13:20:20.705Z,31.83
2018-05-17T13:22:48.225Z,27.90
2018-05-17T13:25:15.785Z,19.60
2018-05-17T13:27:43.286Z,21.10
2018-05-17T13:30:10.819Z,21.97
2018-05-17T13:32:38.403Z,26.17
2018-05-17T13:35:06.094Z,28.67
2018-05-17T13:37:33.700Z,27.20
2018-05-17T13:40:01.233Z,23.43
2018-05-17T13:42:29.068Z,27.03
2018-05-17T13:44:56.937Z,22.57
2018-05-17T13:47:24.532Z,25.03
2018-05-17T13:49:52.113Z,26.97
2018-05-17T13:52:19.663Z,22.90
2018-05-17T13:54:47.197Z,24.27
2018-05-17T13:57:14.827Z,29.23
2018-05-17T13:59:42.379Z,28.90
2018-05-17T14:02:09.879Z,27.73
2018-05-17T14:04:37.424Z,31.40
2018-05-17T14:07:04.981Z,23.93
2018-05-17T14:09:32.494Z,25.73
2018-05-17T14:12:00.149Z,28.63
2018-05-17T14:14:28.012Z,25.83
2018-05-17T14:16:55.551Z,32.57
2018-05-17T14:19:23.058Z,26.17
2018-05-17T14:21:50.650Z,24.83
2018-05-17T14:24:18.175Z,26.90
2018-05-17T14:26:45.688Z,23.73
2018-05-17T14:29:13.227Z,25.07
2018-05-17T14:31:40.823Z,25.30
2018-05-17T14:34:08.376Z,45.17
2018-05-17T14:36:36.159Z,31.17
2018-05-17T14:39:03.694Z,28.07
2018-05-17T14:41:31.234Z,28.13
2018-05-17T14:43:58.849Z,31.10
2018-05-17T14:46:26.726Z,31.97
2018-05-17T14:48:54.252Z,31.30
2018-05-17T14:51:21.782Z,38.97
2018-05-17T14:53:49.596Z,33.37
2018-05-17T14:56:17.118Z,24.87
2018-05-17T14:58:44.712Z,32.10
2018-05-17T15:01:13.059Z,35.23
2018-05-17T15:03:40.538Z,27.80
2018-05-17T15:06:08.056Z,35.80
2018-05-17T15:08:35.609Z,27.23
2018-05-17T15:11:03.275Z,29.47
2018-05-17T15:13:31.016Z,35.10
2018-05-17T15:15:58.558Z,34.47
2018-05-17T15:18:26.088Z,33.90
2018-05-17T15:20:53.644Z,38.40
2018-05-17T15:23:21.979Z,41.47
2018-05-17T15:25:49.539Z,34.30
2018-05-17T15:28:17.092Z,27.73
2018-05-17T15:30:44.621Z,44.00
2018-05-17T15:33:12.234Z,29.87
2018-05-17T15:35:39.794Z,31.53
2018-05-17T15:38:07.324Z,38.03
2018-05-17T15:40:34.833Z,28.77
2018-05-17T15:43:02.375Z,31.17
2018-05-17T15:45:30.025Z,37.17
2018-05-17T15:47:57.537Z,35.73
2018-05-17T15:50:25.058Z,32.60
2018-05-17T15:52:52.641Z,36.23
2018-05-17T15:55:20.187Z,33.83
2018-05-17T15:57:47.721Z,41.60
2018-05-17T16:00:15.266Z,30.80
2018-05-17T16:02:42.869Z,37.97
2018-05-17T16:05:10.390Z,36.80
2018-05-17T16:07:37.948Z,29.13
2018-05-17T16:10:05.505Z,33.83
2018-05-17T16:12:33.036Z,29.17
2018-05-17T16:15:00.724Z,37.13
2018-05-17T16:17:28.219Z,50.27
2018-05-17T16:19:56.067Z,36.57
2018-05-17T16:22:23.626Z,33.10
2018-05-17T16:24:51.175Z,41.50
2018-05-17T16:27:19.052Z,34.80
2018-05-17T16:29:46.515Z,31.13
2018-05-17T16:32:14.037Z,34.83
2018-05-17T16:34:41.596Z,58.70
2018-05-17T16:37:09.192Z,29.50
2018-05-17T16:39:36.713Z,30.50
2018-05-17T16:42:04.295Z,29.50
2018-05-17T16:44:32.813Z,35.37
2018-05-17T16:47:00.389Z,31.30
2018-05-17T16:49:27.895Z,41.17
2018-05-17T16:51:55.455Z,42.63
2018-05-17T16:54:22.985Z,47.43
2018-05-17T16:56:50.811Z,35.53
2018-05-17T16:59:18.573Z,53.73
2018-05-17T17:01:46.107Z,31.13
2018-05-17T17:04:13.722Z,52.83
2018-05-17T17:06:41.258Z,43.10
2018-05-17T17:09:08.795Z,49.43
2018-05-17T17:11:36.415Z,35.47
2018-05-17T17:14:04.235Z,37.43
2018-05-17T17:16:31.776Z,35.97
2018-05-17T17:18:59.469Z,30.07
2018-05-17T17:21:27.002Z,47.07
2018-05-17T17:23:54.630Z,43.23
2018-05-17T17:26:22.282Z,42.70
2018-05-17T17:28:49.789Z,43.10
2018-05-17T17:31:17.786Z,39.70
2018-05-17T17:33:45.377Z,41.87
2018-05-17T17:36:13.046Z,53.47
2018-05-17T17:38:40.540Z,44.63
2018-05-17T17:41:08.050Z,53.50
2018-05-17T17:43:35.702Z,47.60
2018-05-17T17:46:03.323Z,47.10
2018-05-17T17:48:31.023Z,48.63
2018-05-17T17:50:58.669Z,40.23
2018-05-17T17:53:26.215Z,40.70
2018-05-17T17:55:53.753Z,46.70
2018-05-17T17:58:21.601Z,48.10
2018-05-17T18:00:49.438Z,43.97
2018-05-17T18:03:17.304Z,39.60
2018-05-17T18:05:45.129Z,32.37
2018-05-17T18:08:12.781Z,38.87
2018-05-17T18:10:40.308Z,30.43
2018-05-17T18:13:07.833Z,32.47
2018-05-17T18:15:35.358Z,41.00
2018-05-17T18:18:02.899Z,40.70
2018-05-17T18:20:30.511Z,47.43
2018-05-17T18:22:58.138Z,47.27
2018-05-17T18:25:25.803Z,40.63
2018-05-17T18:27:53.361Z,46.40
2018-05-17T18:30:20.901Z,45.23
2018-05-17T18:32:48.465Z,45.40
2018-05-17T18:35:16.019Z,39.87
2018-05-17T18:37:43.532Z,34.67
2018-05-17T18:40:11.283Z,45.50
2018-05-17T18:42:38.939Z,53.57
2018-05-17T18:45:06.461Z,50.03
2018-05-17T18:47:34.113Z,37.97
2018-05-17T18:50:01.828Z,56.50
2018-05-17T18:52:29.396Z,63.03
2018-05-17T18:54:56.922Z,38.93
2018-05-17T18:57:24.545Z,36.90
2018-05-17T18:59:52.069Z,49.07
2018-05-17T19:02:19.860Z,42.10
2018-05-17T19:04:47.393Z,42.17
2018-05-17T19:07:15.221Z,38.97
2018-05-17T19:09:43.561Z,36.23
2018-05-17T19:12:11.904Z,43.23
2018-05-17T19:14:39.425Z,40.80
2018-05-17T19:17:06.968Z,43.90
2018-05-17T19:19:34.642Z,42.67
2018-05-17T19:22:02.238Z,41.37
2018-05-17T19:24:29.805Z,35.53
2018-05-17T19:26:57.422Z,41.47
2018-05-17T19:29:24.998Z,36.67
2018-05-17T19:31:52.583Z,33.63
2018-05-17T19:34:20.138Z,30.20
2018-05-17T19:36:47.757Z,42.87
2018-05-17T19:39:15.282Z,42.33
2018-05-17T19:41:42.954Z,35.87
2018-05-17T19:44:10.457Z,53.70
2018-05-17T19:46:38.106Z,46.00
2018-05-17T19:49:05.643Z,44.53
2018-05-17T19:51:33.341Z,36.93
2018-05-17T19:54:00.850Z,38.43
2018-05-17T19:56:28.362Z,42.47
2018-05-17T19:58:56.045Z,46.37
2018-05-17T20:01:23.587Z,29.53
2018-05-17T20:03:51.167Z,53.47
2018-05-17T20:06:18.808Z,32.27
2018-05-17T20:08:46.503Z,35.20
2018-05-17T20:11:14.089Z,49.40
2018-05-17T20:13:41.765Z,30.73
2018-05-17T20:16:09.321Z,47.17
2018-05-17T20:18:37.025Z,43.57
2018-05-17T20:21:04.459Z,42.90
2018-05-17T20:23:32.046Z,35.93
2018-05-17T20:25:59.715Z,31.60
2018-05-17T20:28:27.302Z,32.40
2018-05-17T20:30:54.885Z,34.77
2018-05-17T20:33:22.528Z,33.97
2018-05-17T20:35:52.318Z,46.20
2018-05-17T20:38:20.002Z,34.73
2018-05-17T20:40:47.558Z,38.27
2018-05-17T20:43:15.093Z,38.60
2018-05-17T20:45:42.643Z,38.43
2018-05-17T20:48:11.154Z,37.80
2018-05-17T20:50:38.688Z,47.47
2018-05-17T20:53:06.224Z,37.83
2018-05-17T20:55:33.741Z,34.77
2018-05-17T20:58:01.403Z,39.43
2018-05-17T21:00:28.999Z,33.80
2018-05-17T21:02:57.293Z,39.50
2018-05-17T21:05:25.924Z,43.03
2018-05-17T21:07:53.521Z,35.63
2018-05-17T21:10:21.344Z,30.30
2018-05-17T21:12:49.183Z,39.60
2018-05-17T21:15:16.823Z,31.90
2018-05-17T21:17:44.666Z,39.97
2018-05-17T21:20:14.735Z,39.43
2018-05-17T21:22:42.258Z,34.87
2018-05-17T21:25:10.049Z,32.00
2018-05-17T21:27:37.650Z,36.87
2018-05-17T21:30:05.160Z,39.17
2018-05-17T21:32:32.816Z,39.37
2018-05-17T21:35:00.476Z,53.33
2018-05-17T21:37:28.735Z,42.83
2018-05-17T21:39:56.360Z,36.63
2018-05-17T21:42:24.515Z,47.17
2018-05-17T21:44:52.128Z,36.20
2018-05-17T21:47:19.629Z,43.43
2018-05-17T21:49:47.356Z,45.23
2018-05-17T21:52:14.861Z,40.37
2018-05-17T21:54:43.187Z,50.50
2018-05-17T21:57:10.760Z,46.30
2018-05-17T21:59:38.273Z,40.20
2018-05-17T22:02:05.820Z,43.20
2018-05-17T22:04:33.354Z,35.83
2018-05-17T22:07:01.818Z,37.40
2018-05-17T22:09:29.373Z,48.20
2018-05-17T22:11:57.027Z,45.03
2018-05-17T22:14:24.711Z,48.50
2018-05-17T22:16:52.249Z,52.53
2018-05-17T22:19:19.910Z,39.67
2018-05-17T22:21:47.415Z,38.10
2018-05-17T22:24:15.002Z,38.00
2018-05-17T22:26:42.543Z,50.73
2018-05-17T22:29:10.435Z,47.90
2018-05-17T22:31:37.905Z,39.90
2018-05-17T22:34:05.445Z,42.50
2018-05-17T22:36:33.010Z,42.33
2018-05-17T22:39:00.505Z,46.03
2018-05-17T22:41:28.072Z,40.87
2018-05-17T22:43:56.020Z,57.23
2018-05-17T22:46:23.887Z,50.93
2018-05-17T22:48:51.860Z,45.07
2018-05-17T22:51:19.392Z,53.30
2018-05-17T22:53:47.044Z,52.30
2018-05-17T22:59:13.912Z,41.60
2018-05-17T23:01:41.462Z,35.07
2018-05-17T23:04:09.009Z,50.20
2018-05-17T23:06:36.569Z,41.07
2018-05-17T23:09:04.101Z,42.83
2018-05-17T23:11:31.661Z,43.17
2018-05-17T23:13:59.386Z,42.47
2018-05-17T23:16:26.934Z,46.33
2018-05-17T23:18:54.885Z,49.13
2018-05-17T23:21:22.410Z,35.67
2018-05-17T23:23:49.935Z,49.10
2018-05-17T23:26:17.657Z,51.90
2018-05-17T23:28:45.500Z,42.60
2018-05-17T23:31:13.004Z,58.93
2018-05-17T23:33:41.027Z,38.20
2018-05-17T23:36:08.550Z,37.40
2018-05-17T23:38:36.073Z,65.87
2018-05-17T23:41:15.417Z,51.53
2018-05-17T23:43:43.687Z,40.33
2018-05-17T23:46:11.197Z,42.13
2018-05-17T23:48:38.758Z,46.57
2018-05-17T23:51:06.275Z,44.10
2018-05-17T23:53:34.469Z,38.33
2018-05-17T23:56:02.207Z,51.17
2018-05-17T23:58:29.710Z,40.07
